sensor_id;sensor_type;location;lat;lon;timestamp;P1;durP1;ratioP1;P2;durP2;ratioP2
23099;SDS011;53791;50.696;4.396;2023-02-11T00:01:27;2.83;;;1.95;;
23099;SDS011;53791;50.696;4.396;2023-02-11T00:03:56;6.97;;;2.70;;
23099;SDS011;53791;50.696;4.396;2023-02-11T00:06:25;5.35;;;2.80;;
23099;SDS011;53791;50.696;4.396;2023-02-11T00:08:54;2.37;;;1.55;;
23099;SDS011;53791;50.696;4.396;2023-02-11T00:11:23;2.87;;;2.10;;
23099;SDS011;53791;50.696;4.396;2023-02-11T00:13:52;3.40;;;2.42;;
23099;SDS011;53791;50.696;4.396;2023-02-11T00:16:20;2.00;;;1.60;;
23099;SDS011;53791;50.696;4.396;2023-02-11T00:18:48;2.85;;;1.90;;
23099;SDS011;53791;50.696;4.396;2023-02-11T00:21:18;3.45;;;2.95;;
23099;SDS011;53791;50.696;4.396;2023-02-11T00:23:47;3.85;;;2.90;;
23099;SDS011;53791;50.696;4.396;2023-02-11T00:26:19;3.35;;;2.45;;
23099;SDS011;53791;50.696;4.396;2023-02-11T00:28:49;2.47;;;1.95;;
23099;SDS011;53791;50.696;4.396;2023-02-11T00:31:18;3.10;;;1.98;;
23099;SDS011;53791;50.696;4.396;2023-02-11T00:33:47;4.17;;;1.82;;
23099;SDS011;53791;50.696;4.396;2023-02-11T00:36:16;2.12;;;1.82;;
23099;SDS011;53791;50.696;4.396;2023-02-11T00:38:49;2.75;;;2.10;;
23099;SDS011;53791;50.696;4.396;2023-02-11T00:41:18;4.22;;;2.27;;
23099;SDS011;53791;50.696;4.396;2023-02-11T00:43:46;2.75;;;2.20;;
23099;SDS011;53791;50.696;4.396;2023-02-11T00:46:14;3.25;;;2.47;;
23099;SDS011;53791;50.696;4.396;2023-02-11T00:48:42;2.27;;;1.82;;
23099;SDS011;53791;50.696;4.396;2023-02-11T00:51:10;3.35;;;2.55;;
23099;SDS011;53791;50.696;4.396;2023-02-11T00:53:37;5.33;;;2.72;;
23099;SDS011;53791;50.696;4.396;2023-02-11T00:56:05;2.55;;;2.25;;
23099;SDS011;53791;50.696;4.396;2023-02-11T00:58:33;2.25;;;1.70;;
23099;SDS011;53791;50.696;4.396;2023-02-11T01:01:01;3.67;;;2.20;;
23099;SDS011;53791;50.696;4.396;2023-02-11T01:03:29;3.80;;;2.05;;
23099;SDS011;53791;50.696;4.396;2023-02-11T01:05:57;5.75;;;4.00;;
23099;SDS011;53791;50.696;4.396;2023-02-11T01:08:24;2.12;;;1.75;;
23099;SDS011;53791;50.696;4.396;2023-02-11T01:10:56;4.65;;;2.50;;
23099;SDS011;53791;50.696;4.396;2023-02-11T01:13:27;2.90;;;2.10;;
23099;SDS011;53791;50.696;4.396;2023-02-11T01:15:56;2.17;;;1.50;;
23099;SDS011;53791;50.696;4.396;2023-02-11T01:18:24;7.05;;;2.22;;
23099;SDS011;53791;50.696;4.396;2023-02-11T01:20:52;3.50;;;2.62;;
23099;SDS011;53791;50.696;4.396;2023-02-11T01:23:20;2.72;;;1.70;;
23099;SDS011;53791;50.696;4.396;2023-02-11T01:25:48;2.20;;;1.62;;
23099;SDS011;53791;50.696;4.396;2023-02-11T01:28:16;2.30;;;1.85;;
23099;SDS011;53791;50.696;4.396;2023-02-11T01:30:46;3.50;;;2.02;;
23099;SDS011;53791;50.696;4.396;2023-02-11T01:33:15;4.50;;;3.10;;
23099;SDS011;53791;50.696;4.396;2023-02-11T01:35:44;2.83;;;2.00;;
23099;SDS011;53791;50.696;4.396;2023-02-11T01:38:15;2.90;;;2.35;;
23099;SDS011;53791;50.696;4.396;2023-02-11T01:40:57;4.70;;;1.90;;
23099;SDS011;53791;50.696;4.396;2023-02-11T01:43:28;3.08;;;2.25;;
23099;SDS011;53791;50.696;4.396;2023-02-11T01:46:01;4.60;;;2.35;;
23099;SDS011;53791;50.696;4.396;2023-02-11T01:48:41;3.05;;;2.35;;
23099;SDS011;53791;50.696;4.396;2023-02-11T01:51:15;6.05;;;2.45;;
23099;SDS011;53791;50.696;4.396;2023-02-11T01:53:41;3.67;;;2.58;;
23099;SDS011;53791;50.696;4.396;2023-02-11T01:56:27;2.50;;;2.00;;
23099;SDS011;53791;50.696;4.396;2023-02-11T01:59:19;2.55;;;1.95;;
23099;SDS011;53791;50.696;4.396;2023-02-11T02:01:49;2.33;;;1.87;;
23099;SDS011;53791;50.696;4.396;2023-02-11T02:04:18;6.37;;;2.80;;
23099;SDS011;53791;50.696;4.396;2023-02-11T02:06:49;2.47;;;1.98;;
23099;SDS011;53791;50.696;4.396;2023-02-11T02:09:26;2.00;;;1.62;;
23099;SDS011;53791;50.696;4.396;2023-02-11T02:11:52;3.35;;;2.02;;
23099;SDS011;53791;50.696;4.396;2023-02-11T02:14:19;2.25;;;1.35;;
23099;SDS011;53791;50.696;4.396;2023-02-11T02:16:47;3.35;;;2.20;;
23099;SDS011;53791;50.696;4.396;2023-02-11T02:24:58;7.58;;;2.80;;
23099;SDS011;53791;50.696;4.396;2023-02-11T02:27:47;4.90;;;3.17;;
23099;SDS011;53791;50.696;4.396;2023-02-11T02:30:35;2.35;;;1.65;;
23099;SDS011;53791;50.696;4.396;2023-02-11T02:33:22;4.67;;;1.95;;
23099;SDS011;53791;50.696;4.396;2023-02-11T02:36:07;1.95;;;1.37;;
23099;SDS011;53791;50.696;4.396;2023-02-11T02:38:57;2.27;;;2.05;;
23099;SDS011;53791;50.696;4.396;2023-02-11T02:41:27;3.65;;;2.10;;
23099;SDS011;53791;50.696;4.396;2023-02-11T02:43:57;2.70;;;2.08;;
23099;SDS011;53791;50.696;4.396;2023-02-11T02:46:30;2.95;;;2.12;;
23099;SDS011;53791;50.696;4.396;2023-02-11T02:48:56;2.77;;;2.22;;
23099;SDS011;53791;50.696;4.396;2023-02-11T02:51:26;3.02;;;1.85;;
23099;SDS011;53791;50.696;4.396;2023-02-11T02:57:07;3.75;;;2.10;;
23099;SDS011;53791;50.696;4.396;2023-02-11T02:59:44;1.80;;;1.40;;
23099;SDS011;53791;50.696;4.396;2023-02-11T03:05:45;3.37;;;2.33;;
23099;SDS011;53791;50.696;4.396;2023-02-11T03:11:00;2.35;;;2.02;;
23099;SDS011;53791;50.696;4.396;2023-02-11T03:13:30;2.15;;;1.87;;
23099;SDS011;53791;50.696;4.396;2023-02-11T03:16:06;2.35;;;1.90;;
23099;SDS011;53791;50.696;4.396;2023-02-11T03:18:30;3.75;;;2.15;;
23099;SDS011;53791;50.696;4.396;2023-02-11T03:21:00;3.15;;;2.27;;
23099;SDS011;53791;50.696;4.396;2023-02-11T03:23:32;2.20;;;1.82;;
23099;SDS011;53791;50.696;4.396;2023-02-11T03:26:02;2.00;;;1.70;;
23099;SDS011;53791;50.696;4.396;2023-02-11T03:28:32;3.58;;;2.22;;
23099;SDS011;53791;50.696;4.396;2023-02-11T03:31:06;2.40;;;1.82;;
23099;SDS011;53791;50.696;4.396;2023-02-11T03:33:37;4.15;;;2.30;;
23099;SDS011;53791;50.696;4.396;2023-02-11T03:36:07;3.30;;;1.72;;
23099;SDS011;53791;50.696;4.396;2023-02-11T03:38:37;3.67;;;2.05;;
23099;SDS011;53791;50.696;4.396;2023-02-11T03:41:07;2.60;;;1.87;;
23099;SDS011;53791;50.696;4.396;2023-02-11T03:43:37;7.12;;;1.98;;
23099;SDS011;53791;50.696;4.396;2023-02-11T03:46:09;4.62;;;3.20;;
23099;SDS011;53791;50.696;4.396;2023-02-11T03:48:38;2.30;;;1.75;;
23099;SDS011;53791;50.696;4.396;2023-02-11T03:51:08;3.55;;;2.65;;
23099;SDS011;53791;50.696;4.396;2023-02-11T03:53:39;2.77;;;2.33;;
23099;SDS011;53791;50.696;4.396;2023-02-11T03:56:09;2.10;;;1.90;;
23099;SDS011;53791;50.696;4.396;2023-02-11T03:58:39;7.17;;;3.05;;
23099;SDS011;53791;50.696;4.396;2023-02-11T04:01:07;3.55;;;2.35;;
23099;SDS011;53791;50.696;4.396;2023-02-11T04:03:35;3.27;;;2.35;;
23099;SDS011;53791;50.696;4.396;2023-02-11T04:06:02;3.08;;;2.47;;
23099;SDS011;53791;50.696;4.396;2023-02-11T04:08:30;3.58;;;2.52;;
23099;SDS011;53791;50.696;4.396;2023-02-11T04:10:58;2.60;;;2.20;;
23099;SDS011;53791;50.696;4.396;2023-02-11T04:13:25;2.35;;;1.92;;
23099;SDS011;53791;50.696;4.396;2023-02-11T04:15:53;3.25;;;2.52;;
23099;SDS011;53791;50.696;4.396;2023-02-11T04:18:20;2.72;;;1.75;;
23099;SDS011;53791;50.696;4.396;2023-02-11T04:20:49;3.02;;;2.42;;
23099;SDS011;53791;50.696;4.396;2023-02-11T04:23:17;6.08;;;3.27;;
23099;SDS011;53791;50.696;4.396;2023-02-11T04:25:44;3.42;;;2.90;;
23099;SDS011;53791;50.696;4.396;2023-02-11T04:28:11;9.20;;;2.75;;
23099;SDS011;53791;50.696;4.396;2023-02-11T04:30:39;2.30;;;1.90;;
23099;SDS011;53791;50.696;4.396;2023-02-11T04:33:07;2.83;;;1.92;;
23099;SDS011;53791;50.696;4.396;2023-02-11T04:35:34;3.08;;;2.55;;
23099;SDS011;53791;50.696;4.396;2023-02-11T04:38:02;3.00;;;2.35;;
23099;SDS011;53791;50.696;4.396;2023-02-11T04:40:29;3.05;;;1.95;;
23099;SDS011;53791;50.696;4.396;2023-02-11T04:42:57;5.50;;;3.08;;
23099;SDS011;53791;50.696;4.396;2023-02-11T04:45:24;2.83;;;2.50;;
23099;SDS011;53791;50.696;4.396;2023-02-11T04:47:51;2.60;;;1.87;;
23099;SDS011;53791;50.696;4.396;2023-02-11T04:50:19;3.25;;;2.87;;
23099;SDS011;53791;50.696;4.396;2023-02-11T04:52:47;4.62;;;2.58;;
23099;SDS011;53791;50.696;4.396;2023-02-11T04:55:14;3.08;;;2.25;;
23099;SDS011;53791;50.696;4.396;2023-02-11T04:57:42;8.98;;;3.30;;
23099;SDS011;53791;50.696;4.396;2023-02-11T05:00:09;2.90;;;2.50;;
23099;SDS011;53791;50.696;4.396;2023-02-11T05:02:37;2.52;;;2.10;;
23099;SDS011;53791;50.696;4.396;2023-02-11T05:05:05;2.52;;;2.00;;
23099;SDS011;53791;50.696;4.396;2023-02-11T05:07:32;3.08;;;2.30;;
23099;SDS011;53791;50.696;4.396;2023-02-11T05:10:00;4.05;;;2.77;;
23099;SDS011;53791;50.696;4.396;2023-02-11T05:12:27;3.12;;;2.40;;
23099;SDS011;53791;50.696;4.396;2023-02-11T05:14:55;3.05;;;2.35;;
23099;SDS011;53791;50.696;4.396;2023-02-11T05:17:22;2.35;;;1.72;;
23099;SDS011;53791;50.696;4.396;2023-02-11T05:19:50;2.65;;;2.33;;
23099;SDS011;53791;50.696;4.396;2023-02-11T05:22:17;2.62;;;2.12;;
23099;SDS011;53791;50.696;4.396;2023-02-11T05:24:46;2.60;;;2.02;;
23099;SDS011;53791;50.696;4.396;2023-02-11T05:27:14;2.55;;;2.30;;
23099;SDS011;53791;50.696;4.396;2023-02-11T05:29:41;4.70;;;3.17;;
23099;SDS011;53791;50.696;4.396;2023-02-11T05:32:09;2.52;;;2.22;;
23099;SDS011;53791;50.696;4.396;2023-02-11T05:34:36;2.85;;;2.55;;
23099;SDS011;53791;50.696;4.396;2023-02-11T05:37:04;7.72;;;3.77;;
23099;SDS011;53791;50.696;4.396;2023-02-11T05:39:32;2.42;;;2.22;;
23099;SDS011;53791;50.696;4.396;2023-02-11T05:41:59;3.08;;;2.67;;
23099;SDS011;53791;50.696;4.396;2023-02-11T05:44:27;4.80;;;3.10;;
23099;SDS011;53791;50.696;4.396;2023-02-11T05:46:54;4.95;;;3.00;;
23099;SDS011;53791;50.696;4.396;2023-02-11T05:49:22;2.22;;;2.00;;
23099;SDS011;53791;50.696;4.396;2023-02-11T05:51:49;3.98;;;2.72;;
23099;SDS011;53791;50.696;4.396;2023-02-11T05:54:17;3.65;;;2.60;;
23099;SDS011;53791;50.696;4.396;2023-02-11T05:56:44;4.33;;;3.15;;
23099;SDS011;53791;50.696;4.396;2023-02-11T05:59:12;5.30;;;2.75;;
23099;SDS011;53791;50.696;4.396;2023-02-11T06:01:40;2.40;;;1.92;;
23099;SDS011;53791;50.696;4.396;2023-02-11T06:04:08;4.17;;;3.37;;
23099;SDS011;53791;50.696;4.396;2023-02-11T06:06:35;3.02;;;2.65;;
23099;SDS011;53791;50.696;4.396;2023-02-11T06:09:03;3.72;;;3.02;;
23099;SDS011;53791;50.696;4.396;2023-02-11T06:11:30;4.12;;;3.15;;
23099;SDS011;53791;50.696;4.396;2023-02-11T06:13:58;4.58;;;2.95;;
23099;SDS011;53791;50.696;4.396;2023-02-11T06:16:26;9.00;;;4.78;;
23099;SDS011;53791;50.696;4.396;2023-02-11T06:18:54;4.80;;;3.27;;
23099;SDS011;53791;50.696;4.396;2023-02-11T06:21:22;3.80;;;2.85;;
23099;SDS011;53791;50.696;4.396;2023-02-11T06:23:49;4.58;;;3.42;;
23099;SDS011;53791;50.696;4.396;2023-02-11T06:26:18;6.05;;;3.80;;
23099;SDS011;53791;50.696;4.396;2023-02-11T06:28:47;7.33;;;4.17;;
23099;SDS011;53791;50.696;4.396;2023-02-11T06:31:14;6.35;;;4.28;;
23099;SDS011;53791;50.696;4.396;2023-02-11T06:33:42;5.62;;;2.62;;
23099;SDS011;53791;50.696;4.396;2023-02-11T06:36:13;2.47;;;2.27;;
23099;SDS011;53791;50.696;4.396;2023-02-11T06:38:43;3.40;;;3.10;;
23099;SDS011;53791;50.696;4.396;2023-02-11T06:41:12;4.75;;;3.08;;
23099;SDS011;53791;50.696;4.396;2023-02-11T06:43:41;5.65;;;2.98;;
23099;SDS011;53791;50.696;4.396;2023-02-11T06:46:09;5.53;;;3.80;;
23099;SDS011;53791;50.696;4.396;2023-02-11T06:48:37;4.10;;;2.80;;
23099;SDS011;53791;50.696;4.396;2023-02-11T06:51:06;6.20;;;4.25;;
23099;SDS011;53791;50.696;4.396;2023-02-11T06:53:36;4.40;;;3.12;;
23099;SDS011;53791;50.696;4.396;2023-02-11T06:56:06;4.08;;;2.95;;
23099;SDS011;53791;50.696;4.396;2023-02-11T06:58:35;4.55;;;2.52;;
23099;SDS011;53791;50.696;4.396;2023-02-11T07:01:04;4.72;;;3.12;;
23099;SDS011;53791;50.696;4.396;2023-02-11T07:03:33;8.95;;;3.30;;
23099;SDS011;53791;50.696;4.396;2023-02-11T07:06:02;6.83;;;4.22;;
23099;SDS011;53791;50.696;4.396;2023-02-11T07:08:34;5.05;;;3.55;;
23099;SDS011;53791;50.696;4.396;2023-02-11T07:11:15;5.42;;;3.72;;
23099;SDS011;53791;50.696;4.396;2023-02-11T07:13:44;3.70;;;2.92;;
23099;SDS011;53791;50.696;4.396;2023-02-11T07:16:13;7.95;;;4.00;;
23099;SDS011;53791;50.696;4.396;2023-02-11T07:18:42;7.33;;;3.62;;
23099;SDS011;53791;50.696;4.396;2023-02-11T07:21:11;4.22;;;3.20;;
23099;SDS011;53791;50.696;4.396;2023-02-11T07:23:40;7.53;;;4.45;;
23099;SDS011;53791;50.696;4.396;2023-02-11T07:26:14;5.83;;;4.22;;
23099;SDS011;53791;50.696;4.396;2023-02-11T07:28:38;5.67;;;3.77;;
23099;SDS011;53791;50.696;4.396;2023-02-11T07:31:20;3.30;;;2.72;;
23099;SDS011;53791;50.696;4.396;2023-02-11T07:33:50;5.50;;;3.70;;
23099;SDS011;53791;50.696;4.396;2023-02-11T07:36:19;2.80;;;2.45;;
23099;SDS011;53791;50.696;4.396;2023-02-11T07:38:47;3.12;;;2.83;;
23099;SDS011;53791;50.696;4.396;2023-02-11T07:41:16;10.45;;;4.28;;
23099;SDS011;53791;50.696;4.396;2023-02-11T07:43:46;9.68;;;5.28;;
23099;SDS011;53791;50.696;4.396;2023-02-11T07:46:15;8.20;;;5.05;;
23099;SDS011;53791;50.696;4.396;2023-02-11T07:48:44;5.00;;;3.83;;
23099;SDS011;53791;50.696;4.396;2023-02-11T07:51:16;5.70;;;3.80;;
23099;SDS011;53791;50.696;4.396;2023-02-11T07:53:42;4.15;;;3.12;;
23099;SDS011;53791;50.696;4.396;2023-02-11T07:56:11;9.10;;;4.75;;
23099;SDS011;53791;50.696;4.396;2023-02-11T07:58:40;4.90;;;3.65;;
23099;SDS011;53791;50.696;4.396;2023-02-11T08:01:09;9.18;;;5.25;;
23099;SDS011;53791;50.696;4.396;2023-02-11T08:03:39;8.63;;;5.20;;
23099;SDS011;53791;50.696;4.396;2023-02-11T08:06:09;7.80;;;4.78;;
23099;SDS011;53791;50.696;4.396;2023-02-11T08:08:38;3.95;;;3.30;;
23099;SDS011;53791;50.696;4.396;2023-02-11T08:11:06;6.47;;;5.05;;
23099;SDS011;53791;50.696;4.396;2023-02-11T08:13:41;9.25;;;5.58;;
23099;SDS011;53791;50.696;4.396;2023-02-11T08:16:16;9.25;;;5.15;;
23099;SDS011;53791;50.696;4.396;2023-02-11T08:18:40;5.30;;;4.58;;
23099;SDS011;53791;50.696;4.396;2023-02-11T08:21:08;8.08;;;3.90;;
23099;SDS011;53791;50.696;4.396;2023-02-11T08:23:36;4.15;;;3.70;;
23099;SDS011;53791;50.696;4.396;2023-02-11T08:26:06;5.80;;;4.05;;
23099;SDS011;53791;50.696;4.396;2023-02-11T08:28:41;4.85;;;3.95;;
23099;SDS011;53791;50.696;4.396;2023-02-11T08:31:12;5.45;;;3.77;;
23099;SDS011;53791;50.696;4.396;2023-02-11T08:33:44;7.90;;;5.05;;
23099;SDS011;53791;50.696;4.396;2023-02-11T08:36:14;5.75;;;5.15;;
23099;SDS011;53791;50.696;4.396;2023-02-11T08:38:46;5.28;;;4.15;;
23099;SDS011;53791;50.696;4.396;2023-02-11T08:41:14;7.92;;;4.80;;
23099;SDS011;53791;50.696;4.396;2023-02-11T08:43:43;5.58;;;4.58;;
23099;SDS011;53791;50.696;4.396;2023-02-11T08:46:12;10.03;;;5.62;;
23099;SDS011;53791;50.696;4.396;2023-02-11T08:48:41;4.40;;;3.67;;
23099;SDS011;53791;50.696;4.396;2023-02-11T08:51:16;7.65;;;4.97;;
23099;SDS011;53791;50.696;4.396;2023-02-11T08:53:40;5.75;;;5.03;;
23099;SDS011;53791;50.696;4.396;2023-02-11T08:56:08;5.00;;;4.47;;
23099;SDS011;53791;50.696;4.396;2023-02-11T08:58:37;7.28;;;3.92;;
23099;SDS011;53791;50.696;4.396;2023-02-11T09:01:11;10.35;;;5.97;;
23099;SDS011;53791;50.696;4.396;2023-02-11T09:03:40;8.15;;;5.65;;
23099;SDS011;53791;50.696;4.396;2023-02-11T09:06:09;7.08;;;4.17;;
23099;SDS011;53791;50.696;4.396;2023-02-11T09:08:44;10.38;;;5.40;;
23099;SDS011;53791;50.696;4.396;2023-02-11T09:11:08;6.40;;;4.15;;
23099;SDS011;53791;50.696;4.396;2023-02-11T09:13:37;6.53;;;5.55;;
23099;SDS011;53791;50.696;4.396;2023-02-11T09:16:06;7.95;;;5.70;;
23099;SDS011;53791;50.696;4.396;2023-02-11T09:18:34;12.85;;;5.50;;
23099;SDS011;53791;50.696;4.396;2023-02-11T09:21:07;4.92;;;4.17;;
23099;SDS011;53791;50.696;4.396;2023-02-11T09:23:32;6.28;;;5.17;;
23099;SDS011;53791;50.696;4.396;2023-02-11T09:26:07;4.92;;;4.40;;
23099;SDS011;53791;50.696;4.396;2023-02-11T09:28:37;5.03;;;4.37;;
23099;SDS011;53791;50.696;4.396;2023-02-11T09:31:05;9.40;;;4.47;;
23099;SDS011;53791;50.696;4.396;2023-02-11T09:33:34;5.28;;;4.28;;
23099;SDS011;53791;50.696;4.396;2023-02-11T09:36:03;5.15;;;3.80;;
23099;SDS011;53791;50.696;4.396;2023-02-11T09:38:31;5.95;;;4.45;;
23099;SDS011;53791;50.696;4.396;2023-02-11T09:40:59;7.15;;;4.55;;
23099;SDS011;53791;50.696;4.396;2023-02-11T09:43:37;5.62;;;3.80;;
23099;SDS011;53791;50.696;4.396;2023-02-11T09:46:04;5.30;;;3.92;;
23099;SDS011;53791;50.696;4.396;2023-02-11T09:48:36;9.48;;;5.50;;
23099;SDS011;53791;50.696;4.396;2023-02-11T09:51:05;8.58;;;5.40;;
23099;SDS011;53791;50.696;4.396;2023-02-11T09:53:37;7.60;;;4.80;;
23099;SDS011;53791;50.696;4.396;2023-02-11T09:56:09;9.13;;;4.42;;
23099;SDS011;53791;50.696;4.396;2023-02-11T09:58:40;6.03;;;4.92;;
23099;SDS011;53791;50.696;4.396;2023-02-11T10:01:19;15.85;;;8.30;;
23099;SDS011;53791;50.696;4.396;2023-02-11T10:03:52;7.67;;;6.17;;
23099;SDS011;53791;50.696;4.396;2023-02-11T10:09:17;10.68;;;5.15;;
23099;SDS011;53791;50.696;4.396;2023-02-11T10:11:55;5.25;;;4.60;;
23099;SDS011;53791;50.696;4.396;2023-02-11T10:20:05;5.25;;;3.87;;
23099;SDS011;53791;50.696;4.396;2023-02-11T10:22:51;4.83;;;4.25;;
23099;SDS011;53791;50.696;4.396;2023-02-11T10:25:21;6.33;;;4.70;;
23099;SDS011;53791;50.696;4.396;2023-02-11T10:27:54;5.47;;;4.42;;
23099;SDS011;53791;50.696;4.396;2023-02-11T10:32:59;9.05;;;5.08;;
23099;SDS011;53791;50.696;4.396;2023-02-11T10:35:27;6.95;;;4.92;;
23099;SDS011;53791;50.696;4.396;2023-02-11T10:37:55;5.28;;;4.75;;
23099;SDS011;53791;50.696;4.396;2023-02-11T10:40:24;8.30;;;4.78;;
23099;SDS011;53791;50.696;4.396;2023-02-11T10:42:53;7.28;;;5.37;;
23099;SDS011;53791;50.696;4.396;2023-02-11T10:45:26;6.40;;;4.75;;
23099;SDS011;53791;50.696;4.396;2023-02-11T10:48:00;8.40;;;5.53;;
23099;SDS011;53791;50.696;4.396;2023-02-11T10:50:32;6.40;;;5.00;;
23099;SDS011;53791;50.696;4.396;2023-02-11T10:53:11;5.53;;;4.60;;
23099;SDS011;53791;50.696;4.396;2023-02-11T10:55:47;3.85;;;3.45;;
23099;SDS011;53791;50.696;4.396;2023-02-11T10:58:27;15.85;;;5.42;;
23099;SDS011;53791;50.696;4.396;2023-02-11T11:00:56;4.62;;;3.72;;
23099;SDS011;53791;50.696;4.396;2023-02-11T11:03:26;7.15;;;4.53;;
23099;SDS011;53791;50.696;4.396;2023-02-11T11:11:17;7.75;;;4.20;;
23099;SDS011;53791;50.696;4.396;2023-02-11T11:13:57;5.95;;;4.60;;
23099;SDS011;53791;50.696;4.396;2023-02-11T11:16:24;4.70;;;3.67;;
23099;SDS011;53791;50.696;4.396;2023-02-11T11:21:41;4.92;;;3.90;;
23099;SDS011;53791;50.696;4.396;2023-02-11T11:24:20;6.22;;;4.83;;
23099;SDS011;53791;50.696;4.396;2023-02-11T11:26:51;5.40;;;4.30;;
23099;SDS011;53791;50.696;4.396;2023-02-11T11:32:11;7.62;;;6.00;;
23099;SDS011;53791;50.696;4.396;2023-02-11T11:34:34;6.42;;;5.33;;
23099;SDS011;53791;50.696;4.396;2023-02-11T11:37:10;6.03;;;5.05;;
23099;SDS011;53791;50.696;4.396;2023-02-11T11:39:40;7.50;;;4.87;;
23099;SDS011;53791;50.696;4.396;2023-02-11T11:44:56;9.13;;;6.45;;
23099;SDS011;53791;50.696;4.396;2023-02-11T11:47:29;4.80;;;4.35;;
23099;SDS011;53791;50.696;4.396;2023-02-11T11:55:37;8.53;;;5.05;;
23099;SDS011;53791;50.696;4.396;2023-02-11T11:58:09;6.78;;;5.25;;
23099;SDS011;53791;50.696;4.396;2023-02-11T12:00:43;9.25;;;6.12;;
23099;SDS011;53791;50.696;4.396;2023-02-11T12:03:16;6.17;;;4.83;;
23099;SDS011;53791;50.696;4.396;2023-02-11T12:05:57;6.08;;;5.05;;
23099;SDS011;53791;50.696;4.396;2023-02-11T12:08:32;4.10;;;3.70;;
23099;SDS011;53791;50.696;4.396;2023-02-11T12:14:04;8.15;;;5.90;;
23099;SDS011;53791;50.696;4.396;2023-02-11T12:22:11;11.05;;;6.22;;
23099;SDS011;53791;50.696;4.396;2023-02-11T12:32:46;11.65;;;6.40;;
23099;SDS011;53791;50.696;4.396;2023-02-11T12:35:42;5.40;;;4.83;;
23099;SDS011;53791;50.696;4.396;2023-02-11T12:38:34;7.67;;;5.37;;
23099;SDS011;53791;50.696;4.396;2023-02-11T12:47:27;6.58;;;5.55;;
23099;SDS011;53791;50.696;4.396;2023-02-11T12:50:15;11.43;;;6.67;;
23099;SDS011;53791;50.696;4.396;2023-02-11T12:52:55;5.72;;;5.08;;
23099;SDS011;53791;50.696;4.396;2023-02-11T12:55:22;8.68;;;5.62;;
23099;SDS011;53791;50.696;4.396;2023-02-11T12:57:54;12.45;;;6.37;;
23099;SDS011;53791;50.696;4.396;2023-02-11T13:00:25;10.53;;;6.37;;
23099;SDS011;53791;50.696;4.396;2023-02-11T13:02:59;7.65;;;5.70;;
23099;SDS011;53791;50.696;4.396;2023-02-11T13:05:38;6.55;;;4.62;;
23099;SDS011;53791;50.696;4.396;2023-02-11T13:08:11;9.28;;;6.10;;
23099;SDS011;53791;50.696;4.396;2023-02-11T13:10:47;20.85;;;6.97;;
23099;SDS011;53791;50.696;4.396;2023-02-11T13:13:27;16.77;;;6.17;;
23099;SDS011;53791;50.696;4.396;2023-02-11T13:16:00;5.95;;;5.03;;
23099;SDS011;53791;50.696;4.396;2023-02-11T13:18:39;7.15;;;5.15;;
23099;SDS011;53791;50.696;4.396;2023-02-11T13:23:50;8.53;;;7.25;;
23099;SDS011;53791;50.696;4.396;2023-02-11T13:31:39;8.25;;;5.45;;
23099;SDS011;53791;50.696;4.396;2023-02-11T13:34:23;5.95;;;5.05;;
23099;SDS011;53791;50.696;4.396;2023-02-11T13:37:20;5.83;;;5.22;;
23099;SDS011;53791;50.696;4.396;2023-02-11T13:40:02;6.05;;;4.92;;
23099;SDS011;53791;50.696;4.396;2023-02-11T13:42:28;13.85;;;7.85;;
23099;SDS011;53791;50.696;4.396;2023-02-11T13:44:57;7.03;;;5.30;;
23099;SDS011;53791;50.696;4.396;2023-02-11T13:47:32;5.42;;;4.90;;
23099;SDS011;53791;50.696;4.396;2023-02-11T13:49:59;9.45;;;6.85;;
23099;SDS011;53791;50.696;4.396;2023-02-11T13:52:30;10.95;;;6.20;;
23099;SDS011;53791;50.696;4.396;2023-02-11T13:57:33;8.20;;;5.87;;
23099;SDS011;53791;50.696;4.396;2023-02-11T14:00:08;16.12;;;8.15;;
23099;SDS011;53791;50.696;4.396;2023-02-11T14:06:11;6.62;;;5.85;;
23099;SDS011;53791;50.696;4.396;2023-02-11T14:08:59;6.28;;;5.12;;
23099;SDS011;53791;50.696;4.396;2023-02-11T14:11:42;5.03;;;4.10;;
23099;SDS011;53791;50.696;4.396;2023-02-11T14:19:33;11.18;;;5.92;;
23099;SDS011;53791;50.696;4.396;2023-02-11T14:22:24;8.58;;;6.15;;
23099;SDS011;53791;50.696;4.396;2023-02-11T14:24:59;8.15;;;6.50;;
23099;SDS011;53791;50.696;4.396;2023-02-11T14:27:32;7.58;;;6.03;;
23099;SDS011;53791;50.696;4.396;2023-02-11T14:30:25;13.40;;;7.70;;
23099;SDS011;53791;50.696;4.396;2023-02-11T14:35:49;8.58;;;6.80;;
23099;SDS011;53791;50.696;4.396;2023-02-11T14:41:25;12.33;;;6.58;;
23099;SDS011;53791;50.696;4.396;2023-02-11T14:43:59;17.82;;;8.15;;
23099;SDS011;53791;50.696;4.396;2023-02-11T14:46:29;10.05;;;6.92;;
23099;SDS011;53791;50.696;4.396;2023-02-11T14:48:59;7.45;;;5.72;;
23099;SDS011;53791;50.696;4.396;2023-02-11T14:51:30;5.50;;;4.97;;
23099;SDS011;53791;50.696;4.396;2023-02-11T14:56:43;6.95;;;5.80;;
23099;SDS011;53791;50.696;4.396;2023-02-11T14:59:21;10.90;;;5.78;;
23099;SDS011;53791;50.696;4.396;2023-02-11T15:01:49;8.75;;;6.37;;
23099;SDS011;53791;50.696;4.396;2023-02-11T15:04:24;11.05;;;7.35;;
23099;SDS011;53791;50.696;4.396;2023-02-11T15:06:54;16.82;;;7.05;;
23099;SDS011;53791;50.696;4.396;2023-02-11T15:09:31;10.30;;;6.53;;
23099;SDS011;53791;50.696;4.396;2023-02-11T15:12:06;7.97;;;5.90;;
23099;SDS011;53791;50.696;4.396;2023-02-11T15:14:38;10.82;;;6.65;;
23099;SDS011;53791;50.696;4.396;2023-02-11T15:17:11;9.98;;;6.72;;
23099;SDS011;53791;50.696;4.396;2023-02-11T15:19:46;8.80;;;6.65;;
23099;SDS011;53791;50.696;4.396;2023-02-11T15:22:22;8.15;;;6.22;;
23099;SDS011;53791;50.696;4.396;2023-02-11T15:25:02;11.35;;;6.70;;
23099;SDS011;53791;50.696;4.396;2023-02-11T15:27:42;9.28;;;5.78;;
23099;SDS011;53791;50.696;4.396;2023-02-11T15:30:25;8.05;;;6.53;;
23099;SDS011;53791;50.696;4.396;2023-02-11T15:32:57;9.95;;;4.97;;
23099;SDS011;53791;50.696;4.396;2023-02-11T15:35:33;9.60;;;6.72;;
23099;SDS011;53791;50.696;4.396;2023-02-11T15:38:02;6.53;;;5.62;;
23099;SDS011;53791;50.696;4.396;2023-02-11T15:40:32;7.22;;;6.12;;
23099;SDS011;53791;50.696;4.396;2023-02-11T15:43:06;7.42;;;6.60;;
23099;SDS011;53791;50.696;4.396;2023-02-11T15:45:37;6.47;;;5.83;;
23099;SDS011;53791;50.696;4.396;2023-02-11T15:48:14;7.80;;;6.83;;
23099;SDS011;53791;50.696;4.396;2023-02-11T15:53:32;10.90;;;7.65;;
23099;SDS011;53791;50.696;4.396;2023-02-11T15:56:12;18.50;;;6.28;;
23099;SDS011;53791;50.696;4.396;2023-02-11T15:58:48;10.25;;;5.55;;
23099;SDS011;53791;50.696;4.396;2023-02-11T16:01:18;7.67;;;5.80;;
23099;SDS011;53791;50.696;4.396;2023-02-11T16:03:50;8.23;;;5.72;;
23099;SDS011;53791;50.696;4.396;2023-02-11T16:06:25;9.45;;;7.42;;
23099;SDS011;53791;50.696;4.396;2023-02-11T16:11:33;12.23;;;8.23;;
23099;SDS011;53791;50.696;4.396;2023-02-11T16:14:40;12.40;;;5.87;;
23099;SDS011;53791;50.696;4.396;2023-02-11T16:16:56;18.90;;;6.40;;
23099;SDS011;53791;50.696;4.396;2023-02-11T16:19:43;8.55;;;6.05;;
23099;SDS011;53791;50.696;4.396;2023-02-11T16:22:16;8.15;;;5.65;;
23099;SDS011;53791;50.696;4.396;2023-02-11T16:24:52;8.08;;;6.37;;
23099;SDS011;53791;50.696;4.396;2023-02-11T16:27:32;7.65;;;6.22;;
23099;SDS011;53791;50.696;4.396;2023-02-11T16:29:59;9.83;;;7.78;;
23099;SDS011;53791;50.696;4.396;2023-02-11T16:32:27;6.50;;;5.05;;
23099;SDS011;53791;50.696;4.396;2023-02-11T16:34:57;10.23;;;6.40;;
23099;SDS011;53791;50.696;4.396;2023-02-11T16:37:26;12.75;;;9.75;;
23099;SDS011;53791;50.696;4.396;2023-02-11T16:39:54;10.20;;;8.03;;
23099;SDS011;53791;50.696;4.396;2023-02-11T16:42:23;13.83;;;8.83;;
23099;SDS011;53791;50.696;4.396;2023-02-11T16:44:59;8.75;;;6.90;;
23099;SDS011;53791;50.696;4.396;2023-02-11T16:47:28;17.30;;;6.33;;
23099;SDS011;53791;50.696;4.396;2023-02-11T16:49:58;10.95;;;7.90;;
23099;SDS011;53791;50.696;4.396;2023-02-11T16:52:29;13.62;;;8.20;;